Time;durP1;ratioP1;P1;durP2;ratioP2;P2;SDS_P1;SDS_P2;PMS_P1;PMS_P2;Temp;Humidity;BMP_temperature;BMP_pressure;BME280_temperature;BME280_humidity;BME280_pressure;Samples;Min_cycle;Max_cycle;Signal;HPM_P1;HPM_P2
2021/12/31 00:02:21;;;;;;;5.60;5.27;;;15.40;99.90;;;;;;5073439;28;20488;-69
2021/12/31 00:04:47;;;;;;;5.57;5.27;;;15.40;99.90;;;;;;5092458;28;20248;-66
2021/12/31 00:07:13;;;;;;;5.50;5.20;;;15.40;99.90;;;;;;5079485;28;20244;-66
2021/12/31 00:09:39;;;;;;;5.93;5.53;;;15.40;99.90;;;;;;5070709;28;20567;-66
2021/12/31 00:12:07;;;;;;;5.70;5.40;;;15.40;99.90;;;;;;5073002;28;20176;-73
2021/12/31 00:14:34;;;;;;;5.23;5.03;;;15.40;99.90;;;;;;5072232;28;20869;-77
2021/12/31 00:17:00;;;;;;;5.10;4.87;;;15.40;99.90;;;;;;5074147;28;20472;-66
2021/12/31 00:19:29;;;;;;;5.47;4.93;;;15.40;99.90;;;;;;5072972;28;20501;-66
2021/12/31 00:21:55;;;;;;;5.10;4.80;;;15.40;99.90;;;;;;5073529;28;20415;-66
2021/12/31 00:24:24;;;;;;;5.40;5.10;;;15.40;99.90;;;;;;5074294;28;20409;-66
2021/12/31 00:26:49;;;;;;;6.13;4.73;;;15.40;99.90;;;;;;5071724;28;20421;-66
2021/12/31 00:29:15;;;;;;;5.77;5.47;;;15.30;99.90;;;;;;5070909;28;20477;-66
2021/12/31 00:31:41;;;;;;;5.80;5.30;;;15.30;99.90;;;;;;5071479;28;20190;-66
2021/12/31 00:34:06;;;;;;;5.47;5.10;;;15.30;99.90;;;;;;5073847;28;20281;-66
2021/12/31 00:36:45;;;;;;;4.87;4.60;;;15.30;99.90;;;;;;5072369;28;20179;-77
2021/12/31 00:39:12;;;;;;;5.40;5.10;;;15.40;99.90;;;;;;5072720;28;20548;-66
2021/12/31 00:41:37;;;;;;;4.87;4.47;;;15.40;99.90;;;;;;5071464;28;20750;-71
2021/12/31 00:44:04;;;;;;;6.97;6.30;;;15.40;99.90;;;;;;5053296;28;20489;-66
2021/12/31 00:46:31;;;;;;;5.40;5.00;;;15.40;99.90;;;;;;5057250;28;20226;-66
2021/12/31 00:48:57;;;;;;;5.03;4.77;;;15.40;99.90;;;;;;5072935;28;20414;-66
2021/12/31 00:51:24;;;;;;;5.90;4.97;;;15.40;99.90;;;;;;5073596;28;20460;-65
2021/12/31 00:53:49;;;;;;;5.03;4.63;;;15.40;99.90;;;;;;5072658;28;20418;-66
2021/12/31 00:56:15;;;;;;;5.63;5.13;;;15.50;99.90;;;;;;5073277;28;20429;-66
2021/12/31 00:58:41;;;;;;;5.20;4.90;;;15.50;99.90;;;;;;5072587;28;20581;-66
2021/12/31 01:01:07;;;;;;;5.60;5.10;;;15.50;99.90;;;;;;5072901;28;20629;-66
2021/12/31 01:03:32;;;;;;;4.90;4.60;;;15.50;99.90;;;;;;5072806;28;20219;-77
2021/12/31 01:05:59;;;;;;;4.50;4.27;;;15.50;99.90;;;;;;5073099;28;20175;-66
2021/12/31 01:08:24;;;;;;;4.70;4.43;;;15.50;99.90;;;;;;5073150;28;20176;-66
2021/12/31 01:10:50;;;;;;;5.03;4.07;;;15.50;99.90;;;;;;5054682;28;20429;-66
2021/12/31 01:13:26;;;;;;;4.30;4.03;;;15.50;99.90;;;;;;5073056;28;20628;-66
2021/12/31 01:15:57;;;;;;;4.33;4.10;;;15.50;99.90;;;;;;5069153;28;20180;-66
2021/12/31 01:19:44;;;;;;;4.60;4.30;;;15.50;99.90;;;;;;5053168;28;20396;-66
2021/12/31 01:21:09;;;;;;;4.27;3.90;;;15.60;99.90;;;;;;5055477;28;20500;-66
2021/12/31 01:23:35;;;;;;;5.87;4.60;;;15.60;99.90;;;;;;5071367;28;20504;-75
2021/12/31 01:26:01;;;;;;;4.53;4.10;;;15.50;99.90;;;;;;5070867;28;20180;-65
2021/12/31 01:28:27;;;;;;;4.20;3.90;;;15.60;99.90;;;;;;5085417;28;20955;-65
2021/12/31 01:30:52;;;;;;;4.20;3.90;;;15.60;99.90;;;;;;5091959;28;20901;-65
2021/12/31 01:33:18;;;;;;;4.07;3.67;;;15.70;99.90;;;;;;5093047;28;20616;-65
2021/12/31 01:35:44;;;;;;;4.10;3.80;;;15.70;99.90;;;;;;5058068;28;20188;-65
2021/12/31 01:38:09;;;;;;;4.10;3.80;;;15.70;99.90;;;;;;5062169;28;20702;-66
2021/12/31 01:40:35;;;;;;;3.53;3.33;;;15.70;99.90;;;;;;5068195;28;20184;-71
2021/12/31 01:43:01;;;;;;;7.37;4.10;;;15.70;99.90;;;;;;5071829;28;20607;-65
2021/12/31 01:45:31;;;;;;;4.00;3.73;;;15.70;99.90;;;;;;5071357;28;20718;-64
2021/12/31 01:48:05;;;;;;;3.90;3.60;;;15.70;99.90;;;;;;5051724;28;20430;-64
2021/12/31 01:50:31;;;;;;;3.77;3.40;;;15.70;99.90;;;;;;5066099;28;20461;-64
2021/12/31 01:52:58;;;;;;;4.40;4.10;;;15.80;99.90;;;;;;5071551;28;20428;-64
2021/12/31 01:55:27;;;;;;;3.70;3.50;;;15.70;99.90;;;;;;5069459;28;20414;-64
2021/12/31 01:57:53;;;;;;;4.33;3.93;;;15.70;99.90;;;;;;5071597;28;20883;-64
2021/12/31 02:00:19;;;;;;;3.93;3.63;;;15.70;99.90;;;;;;5072223;28;20406;-64
2021/12/31 02:02:46;;;;;;;4.57;3.83;;;15.80;99.90;;;;;;5071596;28;20553;-64
2021/12/31 02:05:12;;;;;;;3.70;3.50;;;15.70;99.90;;;;;;5071735;28;20221;-64
2021/12/31 02:07:38;;;;;;;4.60;4.30;;;15.70;99.90;;;;;;5071438;28;20449;-71
2021/12/31 02:10:05;;;;;;;4.30;4.00;;;15.80;99.90;;;;;;5072216;28;20406;-64
2021/12/31 02:12:31;;;;;;;5.40;4.30;;;15.80;99.90;;;;;;5071946;28;20428;-64
2021/12/31 02:14:58;;;;;;;3.87;3.60;;;15.80;99.90;;;;;;5071634;28;20422;-64
2021/12/31 02:17:24;;;;;;;6.10;3.80;;;15.80;99.90;;;;;;5053991;28;20492;-64
2021/12/31 02:20:03;;;;;;;3.87;3.70;;;15.80;99.90;;;;;;5059906;28;20900;-64
2021/12/31 02:22:29;;;;;;;4.13;3.93;;;15.90;99.90;;;;;;5070484;28;20211;-64
2021/12/31 02:24:57;;;;;;;3.90;3.70;;;15.90;99.90;;;;;;5071275;28;20523;-64
2021/12/31 02:27:25;;;;;;;3.83;3.47;;;15.90;99.90;;;;;;5072183;28;20399;-64
2021/12/31 02:29:51;;;;;;;3.93;3.63;;;15.90;99.90;;;;;;5071266;28;20481;-64
2021/12/31 02:32:17;;;;;;;4.03;3.73;;;15.90;99.90;;;;;;5071613;28;20443;-64
2021/12/31 02:34:45;;;;;;;4.13;3.83;;;15.90;99.90;;;;;;5070485;28;20187;-64
2021/12/31 02:37:11;;;;;;;3.97;3.73;;;16.00;99.90;;;;;;5074043;28;20435;-64
2021/12/31 02:39:39;;;;;;;4.40;4.10;;;16.00;99.90;;;;;;5075987;28;20837;-72
2021/12/31 02:42:06;;;;;;;4.03;3.53;;;16.00;99.90;;;;;;5075171;28;20182;-64
2021/12/31 02:44:32;;;;;;;3.73;3.53;;;16.00;99.90;;;;;;5074134;28;20411;-64
2021/12/31 02:47:02;;;;;;;4.00;3.70;;;16.00;99.90;;;;;;5072357;28;21079;-64
2021/12/31 02:49:29;;;;;;;3.70;3.50;;;16.00;99.90;;;;;;5073143;28;20822;-64
2021/12/31 02:51:59;;;;;;;4.13;3.73;;;16.00;99.90;;;;;;5070887;28;20405;-64
2021/12/31 02:54:27;;;;;;;4.00;3.80;;;16.00;99.90;;;;;;5074424;28;20419;-64
2021/12/31 02:56:53;;;;;;;5.10;4.10;;;16.00;99.90;;;;;;5073395;28;20905;-64
2021/12/31 02:59:19;;;;;;;3.37;3.27;;;16.00;99.90;;;;;;5074045;28;20427;-65
2021/12/31 03:01:45;;;;;;;4.07;3.70;;;16.00;99.90;;;;;;5074986;28;20192;-64
2021/12/31 03:04:14;;;;;;;3.93;3.60;;;16.10;99.90;;;;;;5075521;28;20220;-64
2021/12/31 03:06:43;;;;;;;3.70;3.43;;;16.00;99.90;;;;;;5074779;28;20476;-72
2021/12/31 03:09:11;;;;;;;6.87;3.77;;;16.00;99.90;;;;;;5075044;28;20804;-64
2021/12/31 03:11:37;;;;;;;4.20;3.50;;;16.00;99.90;;;;;;5075495;28;20521;-64
2021/12/31 03:14:06;;;;;;;3.70;3.50;;;16.00;99.90;;;;;;5073297;28;20427;-64
2021/12/31 03:16:33;;;;;;;3.67;3.47;;;15.90;99.90;;;;;;5065370;28;20514;-66
2021/12/31 03:18:58;;;;;;;3.90;3.60;;;16.00;99.90;;;;;;5054855;28;20410;-65
2021/12/31 03:21:24;;;;;;;3.90;3.70;;;15.90;99.90;;;;;;5055076;28;20931;-65
2021/12/31 03:23:54;;;;;;;3.73;3.50;;;16.00;99.90;;;;;;5054380;28;20548;-66
2021/12/31 03:26:21;;;;;;;4.30;3.67;;;16.00;99.90;;;;;;5067652;28;20218;-66
2021/12/31 03:28:48;;;;;;;3.50;3.33;;;15.90;99.90;;;;;;5070245;28;20422;-66
2021/12/31 03:31:14;;;;;;;3.60;3.40;;;15.90;99.90;;;;;;5073820;28;20453;-64
2021/12/31 03:33:40;;;;;;;3.53;3.43;;;15.90;99.90;;;;;;5072226;28;20414;-74
2021/12/31 03:36:06;;;;;;;3.43;3.23;;;15.90;99.90;;;;;;5073148;28;20163;-67
2021/12/31 03:38:31;;;;;;;3.80;3.50;;;15.90;99.90;;;;;;5074459;28;20661;-65
2021/12/31 03:40:57;;;;;;;4.03;3.83;;;16.00;99.90;;;;;;5074042;28;20198;-65
2021/12/31 03:43:23;;;;;;;4.20;4.00;;;16.00;99.90;;;;;;5074946;28;20240;-65
2021/12/31 03:45:50;;;;;;;3.83;3.63;;;16.00;99.90;;;;;;5069468;28;20230;-65
2021/12/31 03:48:18;;;;;;;4.40;4.00;;;16.00;99.90;;;;;;5054365;28;20177;-66
2021/12/31 03:50:44;;;;;;;3.77;3.50;;;15.80;99.90;;;;;;5053734;28;20465;-66
2021/12/31 03:53:09;;;;;;;3.63;3.40;;;15.90;99.90;;;;;;5053478;28;20790;-65
2021/12/31 03:55:35;;;;;;;3.53;3.33;;;15.90;99.90;;;;;;5055044;28;20231;-65
2021/12/31 03:58:01;;;;;;;3.40;3.20;;;15.90;99.90;;;;;;5054122;28;20609;-65
2021/12/31 04:00:29;;;;;;;3.73;3.53;;;16.00;99.90;;;;;;5070109;28;20660;-64
2021/12/31 04:02:56;;;;;;;6.27;3.80;;;16.00;99.90;;;;;;5073739;28;20555;-67
2021/12/31 04:05:24;;;;;;;3.67;3.37;;;16.00;99.90;;;;;;5073065;28;20502;-67
2021/12/31 04:07:51;;;;;;;3.23;3.13;;;16.10;99.90;;;;;;5072297;28;20448;-67
2021/12/31 04:10:17;;;;;;;3.10;3.00;;;16.10;99.90;;;;;;5073298;28;20437;-67
2021/12/31 04:12:42;;;;;;;3.63;3.47;;;16.10;99.90;;;;;;5073482;28;20437;-82
2021/12/31 04:15:09;;;;;;;3.53;3.33;;;16.10;99.90;;;;;;5074268;28;20184;-67
2021/12/31 04:17:35;;;;;;;3.57;3.40;;;16.00;99.90;;;;;;5056120;28;20821;-67
2021/12/31 04:20:00;;;;;;;3.10;2.90;;;16.10;99.90;;;;;;5055433;28;20412;-67
2021/12/31 04:22:29;;;;;;;3.10;3.00;;;16.10;99.90;;;;;;5073760;28;20233;-67
2021/12/31 04:24:55;;;;;;;3.13;3.03;;;16.00;99.90;;;;;;5071967;28;20224;-67
2021/12/31 04:27:21;;;;;;;4.20;3.50;;;16.00;99.90;;;;;;5073794;28;20411;-67
2021/12/31 04:29:51;;;;;;;3.90;3.47;;;16.00;99.90;;;;;;5071931;28;20199;-67
2021/12/31 04:32:22;;;;;;;3.90;3.70;;;16.00;99.90;;;;;;5072525;28;20683;-67
2021/12/31 04:34:49;;;;;;;3.90;3.60;;;16.00;99.90;;;;;;5073156;28;20498;-67
2021/12/31 04:37:15;;;;;;;3.60;3.30;;;16.00;99.90;;;;;;5073874;28;20889;-67
2021/12/31 04:39:41;;;;;;;3.23;3.10;;;16.00;99.90;;;;;;5073611;28;20436;-80
2021/12/31 04:42:06;;;;;;;3.87;3.57;;;16.00;99.90;;;;;;5073017;28;20506;-69
2021/12/31 04:44:32;;;;;;;4.20;4.00;;;16.00;99.90;;;;;;5072384;28;20192;-67
2021/12/31 04:46:58;;;;;;;3.97;3.77;;;16.00;99.90;;;;;;5056151;28;20311;-67
2021/12/31 04:49:23;;;;;;;3.37;3.27;;;16.00;99.90;;;;;;5067585;28;20188;-66
2021/12/31 04:51:49;;;;;;;4.57;3.50;;;16.00;99.90;;;;;;5064276;28;20243;-67
2021/12/31 04:54:16;;;;;;;3.70;3.40;;;16.10;99.90;;;;;;5072012;28;20202;-67
2021/12/31 04:56:44;;;;;;;3.57;3.30;;;16.00;99.90;;;;;;5073468;28;20183;-83
2021/12/31 04:59:11;;;;;;;3.33;3.17;;;16.10;99.90;;;;;;5071853;28;20422;-67
2021/12/31 05:01:37;;;;;;;3.47;3.27;;;16.00;99.90;;;;;;5073464;28;20406;-67
2021/12/31 05:04:04;;;;;;;4.67;4.37;;;16.10;99.90;;;;;;5072573;28;20726;-67
2021/12/31 05:06:29;;;;;;;5.53;3.40;;;16.00;99.90;;;;;;5073062;28;20430;-66
2021/12/31 05:08:56;;;;;;;4.50;4.20;;;16.10;99.90;;;;;;5071243;28;20419;-67
2021/12/31 05:11:21;;;;;;;3.67;3.33;;;16.00;99.90;;;;;;5073138;28;20509;-67
2021/12/31 05:13:48;;;;;;;4.07;3.70;;;16.10;99.90;;;;;;5054343;28;20426;-68
2021/12/31 05:16:13;;;;;;;3.60;3.40;;;16.10;99.90;;;;;;5071717;28;20569;-67
2021/12/31 05:18:39;;;;;;;3.53;3.23;;;16.10;99.90;;;;;;5073208;28;20445;-67
2021/12/31 05:21:05;;;;;;;3.60;3.40;;;16.10;99.90;;;;;;5071828;28;20205;-67
2021/12/31 05:23:31;;;;;;;4.20;3.80;;;16.00;99.90;;;;;;5055034;28;20366;-66
2021/12/31 05:25:56;;;;;;;3.37;3.07;;;16.00;99.90;;;;;;5072151;28;20179;-67
2021/12/31 05:28:22;;;;;;;3.80;3.60;;;16.00;99.90;;;;;;5054734;28;20171;-67
2021/12/31 05:30:48;;;;;;;5.70;4.87;;;16.00;99.90;;;;;;5072006;28;20184;-68
2021/12/31 05:33:13;;;;;;;3.40;3.20;;;16.00;99.90;;;;;;5071697;28;20184;-66
2021/12/31 05:35:39;;;;;;;3.87;3.40;;;16.00;99.90;;;;;;5070920;28;20187;-66
2021/12/31 05:38:05;;;;;;;3.90;3.70;;;15.90;99.90;;;;;;5072304;28;20199;-67
2021/12/31 05:40:30;;;;;;;4.00;3.80;;;16.00;99.90;;;;;;5073150;28;20263;-66
2021/12/31 05:42:56;;;;;;;3.90;3.60;;;16.00;99.90;;;;;;5070323;28;20223;-67
2021/12/31 05:45:22;;;;;;;3.60;3.40;;;16.00;99.90;;;;;;5072637;28;20254;-74
2021/12/31 05:47:49;;;;;;;3.40;3.30;;;15.90;99.90;;;;;;5050623;28;20192;-84
2021/12/31 05:50:29;;;;;;;3.60;3.50;;;15.90;99.90;;;;;;5057686;28;20466;-67
2021/12/31 05:52:56;;;;;;;3.67;3.37;;;15.90;99.90;;;;;;5071864;28;20497;-67
2021/12/31 05:55:23;;;;;;;4.10;3.80;;;15.90;99.90;;;;;;5072379;28;20510;-67
2021/12/31 05:57:48;;;;;;;3.60;3.37;;;15.80;99.90;;;;;;5071953;28;20414;-84
2021/12/31 06:00:15;;;;;;;3.37;3.27;;;15.80;99.90;;;;;;5072348;28;20493;-67
2021/12/31 06:02:41;;;;;;;4.23;4.03;;;15.80;99.90;;;;;;5071542;28;20638;-66
2021/12/31 06:05:07;;;;;;;3.70;3.40;;;15.70;99.90;;;;;;5070538;28;20507;-66
2021/12/31 06:07:32;;;;;;;3.90;3.70;;;15.70;99.90;;;;;;5072773;28;20176;-67
2021/12/31 06:09:58;;;;;;;3.63;3.43;;;15.70;99.90;;;;;;5071536;28;20462;-67
2021/12/31 06:12:24;;;;;;;3.57;3.27;;;15.70;99.90;;;;;;5052738;28;20639;-67
2021/12/31 06:14:53;;;;;;;3.70;3.47;;;15.70;99.90;;;;;;5052608;28;20181;-71
2021/12/31 06:17:24;;;;;;;3.57;3.47;;;15.70;99.90;;;;;;5067454;28;20914;-66
2021/12/31 06:19:50;;;;;;;3.93;3.60;;;15.70;99.90;;;;;;5072737;28;20430;-69
2021/12/31 06:22:17;;;;;;;3.37;3.27;;;15.50;99.90;;;;;;5072311;28;20476;-66
2021/12/31 06:24:42;;;;;;;3.40;3.20;;;15.50;99.90;;;;;;5072277;28;20409;-67
2021/12/31 06:27:09;;;;;;;3.90;3.50;;;15.50;99.90;;;;;;5071744;28;20938;-67
2021/12/31 06:29:34;;;;;;;3.47;3.27;;;15.40;99.90;;;;;;5072337;28;20627;-67
2021/12/31 06:32:00;;;;;;;3.83;3.47;;;15.50;99.90;;;;;;5071841;28;20458;-67
2021/12/31 06:34:26;;;;;;;4.00;2.93;;;15.50;99.90;;;;;;5072695;28;20207;-67
2021/12/31 06:36:51;;;;;;;3.87;3.40;;;15.40;99.90;;;;;;5071644;28;20171;-68
2021/12/31 06:39:17;;;;;;;3.63;3.40;;;15.40;99.90;;;;;;5072100;28;20189;-66
2021/12/31 06:41:43;;;;;;;3.43;3.23;;;15.40;99.90;;;;;;5070893;28;20183;-67
2021/12/31 06:44:09;;;;;;;3.10;2.90;;;15.40;99.90;;;;;;5070973;28;20473;-70
2021/12/31 06:46:34;;;;;;;3.33;3.17;;;15.40;99.90;;;;;;5072024;28;20235;-66
2021/12/31 06:49:00;;;;;;;3.17;3.00;;;15.40;99.90;;;;;;5071074;28;20190;-67
2021/12/31 06:51:26;;;;;;;3.90;3.60;;;15.40;99.90;;;;;;5071806;28;20552;-67
2021/12/31 06:53:52;;;;;;;3.00;2.90;;;15.40;99.90;;;;;;5069366;28;20194;-72
2021/12/31 06:56:17;;;;;;;4.80;3.30;;;15.40;99.90;;;;;;5070498;28;20226;-66
2021/12/31 06:58:44;;;;;;;3.70;3.50;;;15.40;99.90;;;;;;5072175;28;20178;-67
2021/12/31 07:01:10;;;;;;;3.20;3.10;;;15.40;99.90;;;;;;5070675;28;20172;-67
2021/12/31 07:03:36;;;;;;;3.33;3.23;;;15.40;99.90;;;;;;5071645;28;20831;-67
2021/12/31 07:06:02;;;;;;;5.80;3.80;;;15.40;99.90;;;;;;5066740;28;20414;-67
2021/12/31 07:08:28;;;;;;;3.40;3.20;;;15.20;99.90;;;;;;5060838;28;20187;-66
2021/12/31 07:10:54;;;;;;;3.63;3.43;;;15.30;99.90;;;;;;5064165;28;20412;-67
2021/12/31 07:13:20;;;;;;;3.53;3.33;;;15.20;99.90;;;;;;5067905;28;20185;-66
2021/12/31 07:15:49;;;;;;;4.10;3.33;;;15.10;99.90;;;;;;5068476;28;20504;-66
2021/12/31 07:18:17;;;;;;;3.50;3.30;;;15.20;99.90;;;;;;5063441;28;20434;-68
2021/12/31 07:20:43;;;;;;;3.67;3.40;;;15.10;99.90;;;;;;5070035;28;20428;-68
2021/12/31 07:23:10;;;;;;;4.17;3.87;;;15.10;99.90;;;;;;5071686;28;21238;-66
2021/12/31 07:25:40;;;;;;;4.03;3.73;;;15.10;99.90;;;;;;5074312;28;20175;-71
2021/12/31 07:28:07;;;;;;;4.40;4.10;;;15.50;99.90;;;;;;5070601;28;20425;-75
2021/12/31 07:30:33;;;;;;;3.70;3.50;;;16.10;99.90;;;;;;5057743;28;20443;-71
2021/12/31 07:32:59;;;;;;;3.53;3.43;;;16.50;99.90;;;;;;5074489;28;20410;-71
2021/12/31 07:35:25;;;;;;;3.67;3.47;;;16.90;99.90;;;;;;5075017;28;20418;-71
2021/12/31 07:37:55;;;;;;;4.20;4.00;;;17.20;99.90;;;;;;5074293;28;20184;-83
2021/12/31 07:40:26;;;;;;;3.13;2.93;;;17.50;99.90;;;;;;5073665;28;20403;-71
2021/12/31 07:42:53;;;;;;;3.27;3.10;;;17.80;99.90;;;;;;5073087;28;21035;-81
2021/12/31 07:45:19;;;;;;;3.50;3.30;;;18.10;99.90;;;;;;5074401;28;20455;-71
2021/12/31 07:47:44;;;;;;;3.47;3.27;;;18.20;99.90;;;;;;5074877;28;20472;-71
2021/12/31 07:50:11;;;;;;;3.33;3.03;;;18.40;99.50;;;;;;5072630;28;20993;-72
2021/12/31 07:52:37;;;;;;;3.60;3.30;;;18.60;99.00;;;;;;5073274;28;20189;-71
2021/12/31 07:55:04;;;;;;;3.00;2.90;;;18.70;98.20;;;;;;5072392;28;20419;-71
2021/12/31 07:57:30;;;;;;;3.20;3.00;;;18.90;97.40;;;;;;5073886;28;20980;-71
2021/12/31 07:59:56;;;;;;;3.63;3.40;;;18.90;97.50;;;;;;5073660;28;20411;-72
2021/12/31 08:02:21;;;;;;;4.17;3.17;;;18.90;97.60;;;;;;5074065;28;20201;-71
2021/12/31 08:04:47;;;;;;;3.57;3.37;;;18.90;97.40;;;;;;5073300;28;20181;-71
2021/12/31 08:07:13;;;;;;;3.60;3.30;;;18.90;96.80;;;;;;5073669;28;20256;-66
2021/12/31 08:09:38;;;;;;;3.30;3.10;;;18.90;96.20;;;;;;5074174;28;20190;-67
2021/12/31 08:12:05;;;;;;;3.70;3.50;;;18.50;96.10;;;;;;5073260;28;20593;-67
2021/12/31 08:14:30;;;;;;;3.90;3.70;;;18.10;96.90;;;;;;5072525;28;20285;-67
2021/12/31 08:16:56;;;;;;;4.00;3.80;;;17.70;97.60;;;;;;5060083;28;20503;-68
2021/12/31 08:19:22;;;;;;;3.50;3.30;;;17.20;98.70;;;;;;5052929;28;20181;-67
2021/12/31 08:21:47;;;;;;;3.83;3.50;;;16.80;99.90;;;;;;5053929;28;20673;-67
2021/12/31 08:24:13;;;;;;;3.97;3.80;;;16.50;99.90;;;;;;5066294;28;20811;-67
2021/12/31 08:26:39;;;;;;;4.13;3.77;;;16.20;99.90;;;;;;5073843;28;20529;-67
2021/12/31 08:29:05;;;;;;;3.57;3.37;;;16.00;99.90;;;;;;5072089;28;20577;-67
2021/12/31 08:31:31;;;;;;;3.47;3.37;;;15.90;99.90;;;;;;5073785;28;20183;-68
2021/12/31 08:33:57;;;;;;;4.00;3.70;;;15.80;99.90;;;;;;5070810;28;20437;-69
2021/12/31 08:36:22;;;;;;;3.70;3.50;;;15.70;99.90;;;;;;5072580;28;20795;-67
2021/12/31 08:38:48;;;;;;;3.50;3.30;;;15.50;99.90;;;;;;5073587;28;20178;-66
2021/12/31 08:41:14;;;;;;;5.10;3.80;;;15.40;99.90;;;;;;5072561;28;20254;-67
2021/12/31 08:43:40;;;;;;;3.80;3.50;;;15.40;99.90;;;;;;5073131;28;20203;-67
2021/12/31 08:46:05;;;;;;;4.10;3.67;;;15.30;99.90;;;;;;5064110;28;20643;-67
2021/12/31 08:48:31;;;;;;;3.70;3.50;;;15.20;99.90;;;;;;5060503;28;20273;-67
2021/12/31 08:50:57;;;;;;;3.23;3.10;;;15.20;99.90;;;;;;5072483;28;20178;-74
2021/12/31 08:53:22;;;;;;;4.00;3.70;;;15.20;99.90;;;;;;5073052;28;20222;-67
2021/12/31 08:55:48;;;;;;;3.80;3.50;;;15.10;99.90;;;;;;5072645;28;20228;-67
2021/12/31 08:58:14;;;;;;;4.03;3.67;;;15.10;99.90;;;;;;5070469;28;20187;-67
2021/12/31 09:00:40;;;;;;;3.60;3.40;;;15.20;99.90;;;;;;5072957;28;20253;-67
2021/12/31 09:03:06;;;;;;;4.47;3.63;;;15.20;99.90;;;;;;5071158;28;20553;-68
2021/12/31 09:05:33;;;;;;;3.50;3.30;;;15.20;99.90;;;;;;5072048;28;20182;-67
2021/12/31 09:07:59;;;;;;;3.87;3.57;;;15.40;99.90;;;;;;5071852;28;20184;-71
2021/12/31 09:10:24;;;;;;;3.40;3.20;;;15.60;99.90;;;;;;5072198;28;20414;-67
2021/12/31 09:12:50;;;;;;;3.70;3.50;;;15.80;99.90;;;;;;5072006;28;20420;-69
2021/12/31 09:15:16;;;;;;;5.10;3.70;;;15.90;99.90;;;;;;5070228;28;20427;-67
2021/12/31 09:17:42;;;;;;;3.20;3.10;;;16.00;99.90;;;;;;5072563;28;20181;-67
2021/12/31 09:20:08;;;;;;;3.47;3.23;;;16.20;99.90;;;;;;5070466;28;20244;-68
2021/12/31 09:22:34;;;;;;;3.10;2.90;;;16.20;99.90;;;;;;5072083;28;20463;-67
2021/12/31 09:25:00;;;;;;;3.40;3.20;;;16.20;99.90;;;;;;5071646;28;20458;-68
2021/12/31 09:27:27;;;;;;;4.23;3.93;;;16.20;99.90;;;;;;5072838;28;20453;-67
2021/12/31 09:29:53;;;;;;;3.97;3.67;;;16.20;99.90;;;;;;5072387;28;20411;-67
2021/12/31 09:32:20;;;;;;;4.03;3.40;;;16.10;99.90;;;;;;5071218;28;20430;-68
2021/12/31 09:34:48;;;;;;;3.93;3.77;;;16.10;99.90;;;;;;5068970;28;20185;-68
2021/12/31 09:37:14;;;;;;;4.60;4.40;;;16.00;99.90;;;;;;5070614;28;20423;-66
2021/12/31 09:39:40;;;;;;;4.30;4.10;;;16.00;99.90;;;;;;5071843;28;20449;-68
2021/12/31 09:42:07;;;;;;;4.93;4.63;;;16.00;99.90;;;;;;5068608;28;20426;-67
2021/12/31 09:44:34;;;;;;;4.03;3.87;;;15.90;99.90;;;;;;5063913;28;20194;-67
2021/12/31 09:47:02;;;;;;;4.57;4.27;;;15.90;99.90;;;;;;5068235;28;20545;-73
2021/12/31 09:49:28;;;;;;;5.13;4.83;;;16.00;99.90;;;;;;5072250;28;20454;-67
2021/12/31 09:51:57;;;;;;;3.10;2.90;;;15.90;99.90;;;;;;5072505;28;20527;-67
2021/12/31 09:54:22;;;;;;;3.00;2.80;;;16.00;99.90;;;;;;5071970;28;20234;-67
2021/12/31 09:56:49;;;;;;;3.10;2.97;;;16.00;99.90;;;;;;5072151;28;20423;-67
2021/12/31 09:59:15;;;;;;;3.20;3.00;;;16.10;99.90;;;;;;5071588;28;20230;-67
2021/12/31 10:01:48;;;;;;;2.80;2.70;;;16.30;99.90;;;;;;5072078;28;20419;-67
2021/12/31 10:04:14;;;;;;;4.27;4.07;;;16.50;99.90;;;;;;5071129;28;20262;-69
2021/12/31 10:07:06;;;;;;;4.10;4.00;;;16.60;99.90;;;;;;5071694;28;20431;-67
2021/12/31 10:09:33;;;;;;;4.00;3.90;;;16.60;99.50;;;;;;5072199;28;20497;-66
2021/12/31 10:11:59;;;;;;;2.50;2.40;;;16.60;98.90;;;;;;5069616;28;20427;-74
2021/12/31 10:14:39;;;;;;;2.40;2.30;;;16.60;99.30;;;;;;5071756;28;20834;-67
2021/12/31 10:17:06;;;;;;;12.20;9.37;;;16.50;99.50;;;;;;5070960;28;20185;-70
2021/12/31 10:19:33;;;;;;;10.83;8.33;;;16.70;99.90;;;;;;5072288;28;20490;-70
2021/12/31 10:21:59;;;;;;;7.17;6.43;;;17.20;99.90;;;;;;5071760;28;20426;-80
2021/12/31 10:24:32;;;;;;;5.97;5.37;;;17.60;99.90;;;;;;5071569;28;20973;-70
2021/12/31 10:27:09;;;;;;;4.00;3.70;;;17.90;99.90;;;;;;5072175;28;20439;-70
2021/12/31 10:29:54;;;;;;;19.60;15.40;;;18.20;99.30;;;;;;5072079;28;20395;-70
2021/12/31 10:32:29;;;;;;;23.23;19.40;;;18.30;99.00;;;;;;5068460;28;20407;-68
2021/12/31 10:35:11;;;;;;;2.97;2.87;;;18.30;96.70;;;;;;5068822;28;20556;-67
2021/12/31 10:37:47;;;;;;;3.07;2.87;;;17.90;97.10;;;;;;5070895;28;20410;-67
2021/12/31 10:40:36;;;;;;;4.13;3.87;;;17.50;97.50;;;;;;5071073;28;20403;-67
2021/12/31 10:43:21;;;;;;;4.37;3.93;;;17.40;98.00;;;;;;5070986;28;20863;-75
2021/12/31 10:46:09;;;;;;;3.00;2.90;;;17.40;98.20;;;;;;5071043;28;20509;-67
2021/12/31 10:48:47;;;;;;;3.80;3.50;;;17.30;98.00;;;;;;5070865;28;20775;-67
2021/12/31 10:51:16;;;;;;;3.90;3.60;;;17.30;98.10;;;;;;5060333;28;20500;-67
2021/12/31 10:53:50;;;;;;;3.43;2.70;;;17.20;98.70;;;;;;5071013;28;20423;-68
2021/12/31 10:56:17;;;;;;;3.27;3.07;;;17.10;98.50;;;;;;5061512;28;20511;-68
2021/12/31 10:58:46;;;;;;;3.10;2.90;;;17.00;98.50;;;;;;5074806;28;20452;-67
2021/12/31 11:01:14;;;;;;;3.57;3.20;;;16.90;98.70;;;;;;5074231;28;20899;-68
2021/12/31 11:03:41;;;;;;;3.30;3.17;;;16.80;98.90;;;;;;5073232;28;20744;-68
2021/12/31 11:06:10;;;;;;;3.07;2.87;;;16.70;99.10;;;;;;5074156;28;20411;-67
2021/12/31 11:08:36;;;;;;;21.37;18.37;;;16.70;99.50;;;;;;5064540;28;20422;-67
2021/12/31 11:11:04;;;;;;;5.23;4.67;;;16.80;99.60;;;;;;5073633;28;20419;-74
2021/12/31 11:13:30;;;;;;;3.27;3.03;;;16.80;99.10;;;;;;5075064;28;20918;-67
2021/12/31 11:15:58;;;;;;;3.10;2.97;;;16.80;99.20;;;;;;5073807;28;20454;-67
2021/12/31 11:18:24;;;;;;;3.60;3.30;;;16.80;99.50;;;;;;5074498;28;20498;-67
2021/12/31 11:20:57;;;;;;;2.90;2.80;;;16.70;99.50;;;;;;5074914;28;20933;-67
2021/12/31 11:23:27;;;;;;;3.53;3.43;;;16.70;99.80;;;;;;5072350;28;20798;-67
2021/12/31 11:25:58;;;;;;;3.10;2.93;;;16.50;99.60;;;;;;5066705;28;20430;-67
2021/12/31 11:28:32;;;;;;;3.63;3.20;;;16.40;99.80;;;;;;5064846;28;20591;-67
2021/12/31 11:31:20;;;;;;;3.50;3.30;;;16.40;99.90;;;;;;5074395;28;20414;-69
2021/12/31 11:33:57;;;;;;;3.20;3.10;;;16.20;99.90;;;;;;5066982;28;20839;-67
2021/12/31 11:36:43;;;;;;;4.30;4.00;;;16.10;99.90;;;;;;5067380;28;20902;-67
2021/12/31 11:39:30;;;;;;;2.63;2.53;;;16.10;99.90;;;;;;5071278;28;20767;-68
2021/12/31 11:42:01;;;;;;;2.90;2.70;;;16.10;99.90;;;;;;5070433;28;20527;-67
2021/12/31 11:44:28;;;;;;;3.00;2.90;;;16.10;99.90;;;;;;5071345;28;20477;-67
2021/12/31 11:47:11;;;;;;;2.93;2.73;;;16.00;99.90;;;;;;5055297;28;20458;-69
2021/12/31 11:49:38;;;;;;;3.67;2.70;;;15.90;99.90;;;;;;5071134;28;20403;-67
2021/12/31 11:52:08;;;;;;;3.27;3.03;;;15.90;99.90;;;;;;5072797;28;20426;-73
2021/12/31 11:54:39;;;;;;;3.17;2.97;;;15.80;99.90;;;;;;5073394;28;20447;-67
2021/12/31 11:57:10;;;;;;;2.80;2.70;;;15.80;99.90;;;;;;5072149;28;21026;-74
2021/12/31 11:59:38;;;;;;;2.83;2.73;;;15.80;99.90;;;;;;5073394;28;20415;-69
2021/12/31 12:02:15;;;;;;;2.90;2.80;;;15.80;99.90;;;;;;5072826;28;20415;-74
2021/12/31 12:04:46;;;;;;;2.77;2.67;;;15.90;99.90;;;;;;5071409;28;20941;-67
2021/12/31 12:07:33;;;;;;;3.43;3.30;;;15.90;99.90;;;;;;5066858;28;20496;-67
2021/12/31 12:09:58;;;;;;;3.27;3.17;;;15.90;99.90;;;;;;5069390;28;20909;-68
2021/12/31 12:12:35;;;;;;;3.17;2.97;;;15.80;99.90;;;;;;5071769;28;20433;-67
2021/12/31 12:15:23;;;;;;;3.20;3.10;;;15.80;99.90;;;;;;5070499;28;20200;-68
2021/12/31 12:17:48;;;;;;;139.43;93.17;;;15.90;99.90;;;;;;5069197;28;20410;-68
2021/12/31 12:20:18;;;;;;;17.43;15.50;;;15.90;99.90;;;;;;5071841;28;20422;-67
2021/12/31 12:22:54;;;;;;;3.60;3.40;;;15.90;99.90;;;;;;5073726;28;20291;-67
2021/12/31 12:25:25;;;;;;;3.57;3.37;;;15.90;99.90;;;;;;5071461;28;20481;-66
2021/12/31 12:28:04;;;;;;;2.70;2.60;;;16.00;99.90;;;;;;5072964;28;20419;-67
2021/12/31 12:30:30;;;;;;;3.20;3.10;;;16.00;99.90;;;;;;5068868;28;20463;-67
2021/12/31 12:33:16;;;;;;;3.33;3.23;;;16.00;99.90;;;;;;5071854;28;20865;-67
2021/12/31 12:35:45;;;;;;;3.77;3.50;;;16.00;99.90;;;;;;5072405;28;20478;-67
2021/12/31 12:38:25;;;;;;;2.70;2.60;;;16.10;99.90;;;;;;5072592;28;20910;-67
2021/12/31 12:40:58;;;;;;;2.97;2.77;;;16.10;99.90;;;;;;5071962;28;20756;-68
2021/12/31 12:43:25;;;;;;;3.20;3.00;;;16.10;99.90;;;;;;5069366;28;20560;-70
2021/12/31 12:45:54;;;;;;;3.20;3.00;;;16.10;99.90;;;;;;5069707;28;20456;-67
2021/12/31 12:48:32;;;;;;;2.93;2.83;;;16.20;99.90;;;;;;5067835;28;20423;-66
2021/12/31 12:50:59;;;;;;;3.27;3.07;;;16.30;99.90;;;;;;5069769;28;20419;-67